Etusivu
METAR-TAF:

METAR-TAF

Lentoasemat :

Almagro, Espanja

Leveyspiiri: 38-57-11N, Pituuspiiri: 3-44-29W, korkeus merenpinnasta: 629 m

METAR: puuttuu

Aika: 01:55 (23:55 UTC)

Sääennuste

Tämä raportti tehtiin 3 tuntia ja 55 minuuttia sitten, kello 20.00 UTC
Ennuste voimassa 25. päivästä klo 21 UTC - 26. päivään klo 21 UTC
Tuuli 5 kn lännestä
Näkyvyys 10 km tai enemmän
ei pilviä alle 1500 m:ssä eikä cumulonimbus-pilviä

TAF: LEAO 252000Z 2521/2621 28005KT CAVOK TX33/2615Z TN15/2605Z

Säähavainnot ja -ennusteet yli 4000 lentoasemalta (METAR- ja TAF-raportit).

Käytössä olevat sääasemat on merkitty karttaan keltaisilla ja punaisilla pisteillä.

Aseta hiiri pisteen päälle nähdäksesi sääaseman nimen.

Klikkaa sitten nähdäksesi säähavainnot ja -ennusteet.

Kartan vaihtaminen: klikkaa mustalla rastilla varustettuja vihreitä pisteitä, niin voit zoomata sisään; viivalla varustettua vihreää pistettä, niin voit zoomata ulos tai vihreitä nuolia, niin pääset viereisille kartoille.


METAR-TAF: